Latest Weather Observations for Dunalley

IDT60801

Issued at 9:31 pm EST Friday 31 July 2015 (issued every 30 minutes, with the page automatically refreshed every 10 minutes)

About weather observations | Map of weather stations | Latest weather observations for TAS | Other Formats
Station Details ID: 094254 Name: DUNALLEY (STROUD POINT) Lat: -42.90 Lon: 147.79 Height: 12.43 m
Data from the previous 72 hours. | See also: Recent months at Dunalley
Date/Time
EST
Temp
°C
App
Temp
°C
Dew
Point
Rel
Hum
%
Delta-T
°C
Wind Press
QNH
hPa
Press
MSL
hPa
Rain
since 9 am
mm
Dir
 
Spd
km/h
Gust
km/h
Spd
kts
Gust
kts
31/09:30pm 8.3 3.5 2.8 68 2.3 N 17 28 9 15 1006.4 1006.4 0.0
31/09:00pm 8.0 3.3 3.3 72 2.0 NE 17 26 9 14 1007.2 1007.2 0.0
31/08:30pm 8.1 2.8 3.2 71 2.1 NNE 20 33 11 18 1007.8 1007.8 0.0
31/08:00pm 8.2 3.0 2.7 68 2.3 N 19 24 10 13 1008.0 1008.0 0.0
31/07:30pm 8.0 3.9 2.3 67 2.4 N 13 20 7 11 1008.4 1008.4 0.0
31/07:00pm 7.8 3.6 1.9 66 2.4 N 13 19 7 10 1008.8 1008.8 0.0
31/06:30pm 7.7 3.8 1.3 64 2.6 N 11 17 6 9 1009.2 1009.2 0.0
31/06:00pm 8.4 3.8 1.6 62 2.8 N 15 20 8 11 1008.9 1008.9 0.0
31/05:30pm 8.4 4.2 1.6 62 2.8 NNW 13 19 7 10 1009.0 1009.0 0.0
31/05:00pm 8.8 4.5 1.2 59 3.1 NNW 13 17 7 9 1009.2 1009.2 0.0
31/04:30pm 10.7 7.4 0.2 48 4.3 NNW 7 15 4 8 1009.4 1009.4 0.0
31/04:00pm 10.5 7.0 1.3 53 3.8 NNW 9 20 5 11 1009.7 1009.7 0.0
31/03:30pm 11.1 7.5 0.5 48 4.4 N 9 17 5 9 1010.3 1010.4 0.0
31/03:00pm 11.4 7.4 0.2 46 4.6 NW 11 19 6 10 1010.5 1010.6 0.0
31/02:30pm 10.9 6.0 -0.2 46 4.5 NW 15 26 8 14 1010.7 1010.8 0.0
31/02:00pm 11.3 5.7 0.1 46 4.6 NW 19 28 10 15 1011.1 1011.2 0.0
31/01:30pm 10.8 5.0 0.2 48 4.3 WNW 20 30 11 16 1011.7 1011.8 0.0
31/01:00pm 10.8 6.8 0.5 49 4.2 NW 11 26 6 14 1012.1 1012.2 0.0
31/12:30pm 10.5 6.1 0.3 49 4.1 NNW 13 26 7 14 1012.7 1012.8 0.0
31/12:00pm 9.8 5.0 -0.1 50 4.0 NNW 15 24 8 13 1013.2 1013.3 0.0
31/11:30am 10.0 4.2 0.1 50 4.0 WNW 20 32 11 17 1013.5 1013.6 0.0
31/11:00am 9.7 4.0 -0.8 48 4.1 NNW 19 28 10 15 1013.3 1013.4 0.0
31/10:30am 9.0 2.8 -0.1 53 3.6 NW 22 32 12 17 1013.8 1013.9 0.0
31/10:00am 9.0 4.5 -0.3 52 3.7 NW 13 17 7 9 1013.7 1013.8 0.0
31/09:30am 8.2 2.3 -0.8 53 3.5 NW 20 30 11 16 1013.4 1013.5 0.0
31/09:00am 7.6 2.2 -1.1 54 3.3 NW 17 24 9 13 1013.5 1013.6 0.0
31/08:30am 6.9 1.5 -1.0 57 3.0 NW 17 26 9 14 1013.2 1013.3 0.0
31/08:00am 6.4 1.4 -1.2 58 2.8 WNW 15 24 8 13 1012.9 1013.0 0.0
31/07:30am 6.3 -0.1 -1.6 57 2.9 WNW 22 32 12 17 1012.4 1012.5 0.0
31/07:00am 5.6 -0.1 -1.1 62 2.5 WNW 19 26 10 14 1012.2 1012.3 0.0
31/06:30am 5.2 -0.5 -0.4 67 2.1 W 19 22 10 12 1011.9 1012.0 0.0
31/06:00am 5.5 0.1 -1.2 62 2.5 WNW 17 20 9 11 1011.4 1011.5 0.0
31/05:30am 5.3 1.1 -0.7 65 2.2 W 11 15 6 8 1011.5 1011.6 0.0
31/05:00am 5.3 1.8 -1.2 63 2.4 W 7 13 4 7 1011.0 1011.1 0.0
31/04:30am 5.9 1.8 -0.4 64 2.4 W 11 28 6 15 1011.0 1011.1 0.0
31/04:26am 6.3 0.7 -0.2 63 2.5 W 19 32 10 17 1010.9 1011.0 0.0
31/04:00am 7.0 -2.2 1.5 68 2.2 WSW 39 48 21 26 1010.3 1010.4 0.0
31/03:30am 6.9 -1.1 0.1 62 2.6 W 32 50 17 27 1009.8 1009.8 0.0
31/03:26am 6.7 0.5 -0.1 62 2.6 W 22 44 12 24 1009.7 1009.7 0.0
31/03:00am 6.0 0.9 0.8 69 2.0 W 17 32 9 17 1009.7 1009.7 0.0
31/02:30am 6.9 -1.0 2.2 72 1.9 WSW 33 41 18 22 1008.9 1008.9 0.0
31/02:00am 7.0 -1.3 1.9 70 2.1 WSW 35 39 19 21 1008.9 1008.9 0.0
31/01:30am 7.4 -2.7 1.7 67 2.3 WSW 44 59 24 32 1008.0 1008.0 0.0
31/01:00am 7.3 -2.7 2.0 69 2.2 W 44 54 24 29 1007.4 1007.4 0.0
31/12:36am 7.4 -0.5 2.3 70 2.1 WSW 33 54 18 29 1006.8 1006.8 0.0
31/12:30am 7.3 0.1 3.2 75 1.7 SW 30 35 16 19 1006.8 1006.8 0.0
31/12:00am 7.4 -0.4 3.1 74 1.8 W 33 41 18 22 1006.6 1006.6 0.0
 
Date/Time
EST
Temp
°C
App
Temp
°C
Dew
Point
Rel
Hum
%
Delta-T
°C
Wind Press
QNH
hPa
Press
MSL
hPa
Rain
since 9 am
mm
Dir
 
Spd
km/h
Gust
km/h
Spd
kts
Gust
kts
30/11:30pm 7.3 -1.2 3.4 76 1.7 W 37 44 20 24 1005.6 1005.6 0.0
30/11:00pm 7.9 -0.2 3.0 71 2.1 WSW 35 43 19 23 1005.7 1005.7 0.0
30/10:30pm 8.0 0.5 4.2 77 1.7 WSW 33 41 18 22 1004.9 1004.9 0.0
30/10:00pm 8.1 -1.4 4.7 79 1.5 WSW 44 56 24 30 1003.9 1003.9 0.0
30/09:30pm 9.2 -1.6 4.0 70 2.3 WSW 50 61 27 33 1002.8 1002.8 0.0
30/09:16pm 9.6 -1.2 4.2 69 2.4 WSW 50 63 27 34 1002.5 1002.5 0.0
30/09:03pm 10.2 2.1 3.5 63 2.9 W 35 54 19 29 1002.1 1002.1 0.0
30/09:00pm 10.3 2.3 3.6 63 3.0 W 35 46 19 25 1002.0 1002.0 0.0
30/08:41pm 10.6 2.5 3.2 60 3.2 W 35 56 19 30 1001.3 1001.3 0.0
30/08:30pm 10.5 2.9 3.8 63 3.0 W 33 46 18 25 1000.9 1000.9 0.0
30/08:08pm 11.0 3.0 3.8 61 3.2 WNW 35 56 19 30 1000.4 1000.4 0.0
30/08:00pm 11.4 2.6 3.7 59 3.4 WNW 39 56 21 30 1000.3 1000.3 0.0
30/07:31pm 11.8 5.0 3.3 56 3.7 NW 28 56 15 30 999.2 999.2 0.0
30/07:30pm 11.6 5.2 3.4 57 3.6 NW 26 43 14 23 999.2 999.2 0.0
30/07:29pm 11.4 5.4 3.4 58 3.5 NW 24 43 13 23 999.3 999.3 0.0
30/07:00pm 10.7 6.2 4.0 63 3.0 NNW 17 24 9 13 998.9 998.9 0.0
30/06:30pm 10.7 6.2 4.0 63 3.0 N 17 26 9 14 998.7 998.7 0.0
30/06:00pm 10.4 7.0 3.9 64 2.9 N 11 20 6 11 998.8 998.8 0.0
30/05:30pm 10.4 5.3 4.3 66 2.7 NE 20 30 11 16 998.9 998.9 0.0
30/05:00pm 11.5 7.0 4.3 61 3.3 NNE 17 30 9 16 999.4 999.4 0.0
30/04:30pm 11.7 8.0 4.4 61 3.3 N 13 28 7 15 999.8 999.8 0.0
30/04:00pm 12.6 8.4 3.8 55 4.0 N 15 30 8 16 1000.6 1000.6 0.0
30/03:30pm 13.0 8.5 4.2 55 4.0 N 17 30 9 16 1001.2 1001.2 0.0
30/03:00pm 13.0 6.4 4.2 55 4.0 NNE 28 41 15 22 1001.6 1001.6 0.0
30/02:30pm 13.0 5.5 3.4 52 4.3 N 32 46 17 25 1002.2 1002.2 0.0
30/02:00pm 13.8 6.2 4.1 52 4.5 N 33 48 18 26 1002.4 1002.4 0.0
30/01:41pm 14.2 7.5 3.9 50 4.7 N 28 48 15 26 1003.0 1003.0 0.0
30/01:30pm 14.2 9.1 3.9 50 4.7 N 20 37 11 20 1003.2 1003.2 0.0
30/01:00pm 13.0 7.4 3.4 52 4.3 N 22 39 12 21 1004.3 1004.3 0.0
30/12:30pm 12.7 6.1 4.2 56 3.9 NNW 28 44 15 24 1005.1 1005.1 0.0
30/12:00pm 12.2 5.9 3.9 57 3.7 NNW 26 44 14 24 1006.0 1006.0 0.0
30/11:30am 12.0 7.9 4.2 59 3.5 N 15 32 8 17 1007.4 1007.4 0.0
30/11:00am 11.6 6.8 4.6 62 3.2 NNW 19 28 10 15 1008.7 1008.7 0.0
30/10:30am 11.4 8.4 4.2 61 3.2 NNW 9 19 5 10 1009.6 1009.6 0.0
30/10:00am 11.0 7.2 4.0 62 3.1 NNW 13 19 7 10 1010.2 1010.2 0.0
30/09:30am 10.8 6.3 4.0 63 3.0 N 17 30 9 16 1010.8 1010.9 0.0
30/09:00am 10.7 8.1 4.2 64 2.9 N 7 19 4 10 1011.6 1011.7 0.0
30/08:30am 10.2 7.7 3.7 64 2.9 N 6 11 3 6 1012.1 1012.2 0.0
30/08:00am 10.2 7.5 3.9 65 2.8 N 7 13 4 7 1012.7 1012.8 0.0
30/07:30am 8.8 6.3 4.0 72 2.1 N 6 11 3 6 1013.1 1013.2 0.0
30/07:00am 9.3 6.6 3.5 67 2.5 N 7 11 4 6 1013.5 1013.6 0.0
30/06:30am 9.0 6.4 3.4 68 2.4 N 6 11 3 6 1013.9 1014.0 0.0
30/06:00am 9.7 6.7 2.1 59 3.2 N 7 13 4 7 1014.3 1014.4 0.0
30/05:30am 10.2 6.5 2.3 58 3.4 NNW 11 22 6 12 1014.8 1014.9 0.0
30/05:00am 9.4 6.5 2.5 62 2.9 N 7 11 4 6 1015.0 1015.1 0.0
30/04:30am 10.2 7.3 2.8 60 3.2 NNW 7 17 4 9 1015.4 1015.5 0.0
30/04:00am 10.3 6.6 2.4 58 3.4 NNW 11 17 6 9 1015.6 1015.7 0.0
30/03:30am 10.7 5.8 1.8 54 3.8 NW 17 28 9 15 1015.8 1015.9 0.0
30/03:00am 10.7 5.3 2.3 56 3.6 NNW 20 28 11 15 1016.0 1016.1 0.0
30/02:30am 10.9 6.1 2.7 57 3.5 NW 17 24 9 13 1017.1 1017.2 0.0
30/02:00am 10.6 6.9 4.3 65 2.8 N 13 22 7 12 1017.6 1017.7 0.0
30/01:30am 10.4 7.5 4.8 68 2.5 N 9 13 5 7 1018.1 1018.2 0.0
30/01:00am 9.7 7.3 5.1 73 2.1 N 7 11 4 6 1018.5 1018.6 0.0
30/12:30am 9.2 6.9 5.8 79 1.6 N 7 11 4 6 1018.7 1018.8 0.0
30/12:00am 9.3 6.7 5.9 79 1.6 N 9 13 5 7 1019.1 1019.2 0.0
 
Date/Time
EST
Temp
°C
App
Temp
°C
Dew
Point
Rel
Hum
%
Delta-T
°C
Wind Press
QNH
hPa
Press
MSL
hPa
Rain
since 9 am
mm
Dir
 
Spd
km/h
Gust
km/h
Spd
kts
Gust
kts
29/11:30pm 9.9 7.6 5.5 74 2.0 N 7 13 4 7 1019.5 1019.6 0.0
29/11:00pm 11.1 8.2 4.8 65 2.8 N 9 19 5 10 1019.7 1019.8 0.0
29/10:30pm 10.9 7.2 4.6 65 2.8 N 13 24 7 13 1020.2 1020.3 0.0
29/10:00pm 10.0 7.6 5.4 73 2.1 ENE 7 15 4 8 1020.5 1020.6 0.0
29/09:30pm 9.8 6.0 6.0 77 1.8 NW 15 22 8 12 1020.9 1021.0 0.0
29/09:00pm 10.9 7.6 4.6 65 2.8 NW 11 19 6 10 1021.3 1021.4 0.0
29/08:30pm 10.1 7.7 4.3 67 2.6 NW 6 13 3 7 1021.2 1021.3 0.0
29/08:00pm 10.0 7.5 4.8 70 2.3 NW 7 15 4 8 1021.3 1021.4 0.0
29/07:30pm 9.4 6.7 5.8 78 1.6 NW 9 17 5 9 1021.5 1021.6 0.0
29/07:00pm 9.3 6.9 5.3 76 1.8 NW 7 11 4 6 1021.7 1021.8 0.0
29/06:30pm 9.0 6.3 5.6 79 1.5 NW 9 13 5 7 1021.7 1021.8 0.0
29/06:00pm 9.1 6.3 5.3 77 1.7 NW 9 11 5 6 1021.7 1021.8 0.0
29/05:30pm 9.6 7.3 5.6 76 1.8 NW 7 11 4 6 1021.9 1022.0 0.0
29/05:00pm 10.2 8.1 5.8 74 2.0 WNW 6 9 3 5 1022.0 1022.1 0.0
29/04:30pm 11.4 9.5 4.8 64 3.0 WNW 4 7 2 4 1022.1 1022.2 0.0
29/04:00pm 12.1 9.5 4.3 59 3.5 WNW 7 11 4 6 1022.4 1022.5 0.0
29/03:30pm 12.7 9.3 4.2 56 3.9 NW 11 17 6 9 1022.6 1022.7 0.0
29/03:00pm 12.7 10.1 4.4 57 3.8 NW 7 9 4 5 1022.8 1022.9 0.0
29/02:30pm 12.8 9.1 4.3 56 3.9 NW 13 22 7 12 1023.1 1023.2 0.0
29/02:00pm 13.1 9.8 4.5 56 3.9 WNW 11 20 6 11 1023.5 1023.6 0.0
29/01:30pm 12.9 8.8 4.3 56 3.9 WNW 15 22 8 12 1024.0 1024.1 0.0
29/01:00pm 12.9 9.1 4.1 55 4.0 WNW 13 19 7 10 1024.3 1024.4 0.0
29/12:30pm 12.3 7.8 4.0 57 3.7 WNW 17 22 9 12 1024.8 1024.9 0.0
29/12:00pm 12.7 8.9 3.9 55 3.9 WNW 13 20 7 11 1025.4 1025.5 0.0
29/11:30am 12.2 7.7 4.2 58 3.6 WNW 17 22 9 12 1025.9 1026.0 0.0
29/11:00am 12.3 8.2 4.3 58 3.6 NW 15 20 8 11 1026.3 1026.4 0.0
29/10:30am 11.6 9.1 4.6 62 3.2 NW 7 11 4 6 1026.6 1026.7 0.0
29/10:00am 10.8 6.4 4.7 66 2.7 NW 17 22 9 12 1027.0 1027.1 0.0
29/09:30am 10.3 5.8 4.0 65 2.8 NNW 17 22 9 12 1027.2 1027.3 0.0
29/09:00am 10.5 7.5 4.2 65 2.8 N 9 17 5 9 1027.3 1027.4 0.0
29/08:30am 7.7 5.2 4.8 82 1.3 ENE 7 11 4 6 1027.4 1027.5 0.0
29/08:00am 7.9 3.9 5.0 82 1.3 NNW 15 19 8 10 1027.2 1027.3 0.0
29/07:30am 7.1 4.7 5.1 87 0.9 NNW 7 11 4 6 1027.1 1027.2 0.0
29/07:00am 8.2 5.3 4.6 78 1.6 NNW 9 15 5 8 1027.2 1027.3 0.0
29/06:30am 9.8 6.2 4.8 71 2.2 NNW 13 20 7 11 1027.0 1027.1 0.0
29/06:00am 8.9 6.1 5.1 77 1.7 NNW 9 19 5 10 1027.0 1027.1 0.0
29/05:30am 9.6 6.4 5.2 74 2.0 NNW 11 15 6 8 1026.5 1026.6 0.0
29/05:00am 9.7 6.2 5.3 74 2.0 NNW 13 19 7 10 1026.5 1026.6 0.0
29/04:30am 9.7 6.2 5.5 75 1.9 NNW 13 20 7 11 1026.3 1026.4 0.0
29/04:00am 7.0 4.6 5.3 89 0.7 NNW 7 9 4 5 1026.6 1026.7 0.0
29/03:30am 7.7 5.5 5.5 86 1.0 NNW 6 7 3 4 1026.5 1026.6 0.0
29/03:00am 7.9 5.7 5.5 85 1.1 NNW 6 7 3 4 1026.6 1026.7 0.0
29/02:30am 9.1 6.8 5.5 78 1.6 NNW 7 9 4 5 1026.9 1027.0 0.0
29/02:00am 10.4 7.4 5.8 73 2.1 NW 11 19 6 10 1026.7 1026.8 0.0
29/01:30am 10.0 7.3 5.8 75 1.9 WNW 9 15 5 8 1026.9 1027.0 0.0
29/01:00am 9.2 7.8 5.4 77 1.7 WNW 2 6 1 3 1027.1 1027.2 0.0
29/12:30am 10.6 8.2 5.4 70 2.4 WNW 7 13 4 7 1027.1 1027.2 0.0
29/12:00am 10.8 7.3 5.6 70 2.4 WNW 13 17 7 9 1027.3 1027.4 0.0
 
Date/Time
EST
Temp
°C
App
Temp
°C
Dew
Point
Rel
Hum
%
Delta-T
°C
Wind Press
QNH
hPa
Press
MSL
hPa
Rain
since 9 am
mm
Dir
 
Spd
km/h
Gust
km/h
Spd
kts
Gust
kts
28/11:30pm 10.7 6.9 5.7 71 2.3 WNW 15 20 8 11 1027.2 1027.3 0.0
28/11:00pm 10.9 7.9 5.9 71 2.3 NW 11 15 6 8 1027.2 1027.3 0.0
28/10:30pm 11.1 7.3 5.8 70 2.5 NW 15 20 8 11 1027.2 1027.3 0.0
28/10:00pm 10.8 7.4 5.8 71 2.3 WNW 13 17 7 9 1027.1 1027.2 0.0

Other Formats:

Comma delimited format used in spreadsheet applications
http://www.bom.gov.au/fwo/IDT60801/IDT60801.94951.axf

JavaScript Object Notation format (JSON) in row-major order
http://www.bom.gov.au/fwo/IDT60801/IDT60801.94951.json